Terminal Aerodrome Forecast
Issued by NWS Cleveland, OH

Home | Current Version | Previous Version | Graphics & Text | Print | Product List | Glossary On
Versions: 1 2 3 4 5 6 7 8 9 10 11 12 13 14 15
345
FTUS41 KCLE 210520
TAFERI
TAF
KERI 210520Z 2106/2206 20004KT P6SM SKC
      TEMPO 2110/2113 4SM BR
     FM211300 32005KT P6SM SCT035 SCT200
     FM211600 30009KT P6SM SCT250
     FM220300 VRB03KT P6SM SCT250=

USA.gov is the U.S. government's official web portal to all federal, state and local government web resources and services.